sensor_id;sensor_type;location;lat;lon;timestamp;temperature;humidity
2489;DHT22;1255;48.716;9.124;2022-07-09T00:01:31;13.60;99.90
2489;DHT22;1255;48.716;9.124;2022-07-09T00:03:59;13.50;99.90
2489;DHT22;1255;48.716;9.124;2022-07-09T00:06:26;13.50;99.90
2489;DHT22;1255;48.716;9.124;2022-07-09T00:08:54;13.50;99.90
2489;DHT22;1255;48.716;9.124;2022-07-09T00:11:20;13.50;99.90
2489;DHT22;1255;48.716;9.124;2022-07-09T00:13:47;13.40;99.90
2489;DHT22;1255;48.716;9.124;2022-07-09T00:16:14;13.40;99.90
2489;DHT22;1255;48.716;9.124;2022-07-09T00:18:41;13.40;99.90
2489;DHT22;1255;48.716;9.124;2022-07-09T00:21:09;13.40;99.90
2489;DHT22;1255;48.716;9.124;2022-07-09T00:23:36;13.30;99.90
2489;DHT22;1255;48.716;9.124;2022-07-09T00:26:02;13.30;99.90
2489;DHT22;1255;48.716;9.124;2022-07-09T00:28:29;13.30;99.90
2489;DHT22;1255;48.716;9.124;2022-07-09T00:30:56;13.30;99.90
2489;DHT22;1255;48.716;9.124;2022-07-09T00:33:23;13.30;99.90
2489;DHT22;1255;48.716;9.124;2022-07-09T00:35:49;13.20;99.90
2489;DHT22;1255;48.716;9.124;2022-07-09T00:38:17;13.20;99.90
2489;DHT22;1255;48.716;9.124;2022-07-09T00:40:44;13.20;99.90
2489;DHT22;1255;48.716;9.124;2022-07-09T00:43:18;13.20;99.90
2489;DHT22;1255;48.716;9.124;2022-07-09T00:45:45;13.20;99.90
2489;DHT22;1255;48.716;9.124;2022-07-09T00:48:12;13.20;99.90
2489;DHT22;1255;48.716;9.124;2022-07-09T00:50:41;13.10;99.90
2489;DHT22;1255;48.716;9.124;2022-07-09T00:53:10;13.10;99.90
2489;DHT22;1255;48.716;9.124;2022-07-09T00:55:40;13.10;99.90
2489;DHT22;1255;48.716;9.124;2022-07-09T00:58:10;13.00;99.90
2489;DHT22;1255;48.716;9.124;2022-07-09T01:00:37;13.00;99.90
2489;DHT22;1255;48.716;9.124;2022-07-09T01:03:04;13.00;99.90
2489;DHT22;1255;48.716;9.124;2022-07-09T01:05:31;12.90;99.90
2489;DHT22;1255;48.716;9.124;2022-07-09T01:08:02;12.90;99.90
2489;DHT22;1255;48.716;9.124;2022-07-09T01:10:29;12.80;99.90
2489;DHT22;1255;48.716;9.124;2022-07-09T01:12:57;12.80;99.90
2489;DHT22;1255;48.716;9.124;2022-07-09T01:15:24;12.80;99.90
2489;DHT22;1255;48.716;9.124;2022-07-09T01:17:51;12.80;99.90
2489;DHT22;1255;48.716;9.124;2022-07-09T01:20:21;12.70;99.90
2489;DHT22;1255;48.716;9.124;2022-07-09T01:22:48;12.70;99.90
2489;DHT22;1255;48.716;9.124;2022-07-09T01:25:16;12.70;99.90
2489;DHT22;1255;48.716;9.124;2022-07-09T01:27:43;12.70;99.90
2489;DHT22;1255;48.716;9.124;2022-07-09T01:30:11;12.70;99.90
2489;DHT22;1255;48.716;9.124;2022-07-09T01:32:37;12.80;99.90
2489;DHT22;1255;48.716;9.124;2022-07-09T01:35:05;12.70;99.90
2489;DHT22;1255;48.716;9.124;2022-07-09T01:37:33;12.70;99.90
2489;DHT22;1255;48.716;9.124;2022-07-09T01:39:59;12.60;99.90
2489;DHT22;1255;48.716;9.124;2022-07-09T01:42:26;12.60;99.90
2489;DHT22;1255;48.716;9.124;2022-07-09T01:44:53;12.60;99.90
2489;DHT22;1255;48.716;9.124;2022-07-09T01:47:19;12.50;99.90
2489;DHT22;1255;48.716;9.124;2022-07-09T01:49:46;12.50;99.90
2489;DHT22;1255;48.716;9.124;2022-07-09T01:52:13;12.50;99.90
2489;DHT22;1255;48.716;9.124;2022-07-09T01:54:42;12.50;99.90
2489;DHT22;1255;48.716;9.124;2022-07-09T01:57:09;12.40;99.90
2489;DHT22;1255;48.716;9.124;2022-07-09T01:59:35;12.40;99.90
2489;DHT22;1255;48.716;9.124;2022-07-09T02:02:02;12.40;99.90
2489;DHT22;1255;48.716;9.124;2022-07-09T02:04:30;12.40;99.90
2489;DHT22;1255;48.716;9.124;2022-07-09T02:06:57;12.40;99.90
2489;DHT22;1255;48.716;9.124;2022-07-09T02:09:24;12.40;99.90
2489;DHT22;1255;48.716;9.124;2022-07-09T02:11:52;12.30;99.90
2489;DHT22;1255;48.716;9.124;2022-07-09T02:14:19;12.30;99.90
2489;DHT22;1255;48.716;9.124;2022-07-09T02:16:45;12.40;99.90
2489;DHT22;1255;48.716;9.124;2022-07-09T02:19:13;12.30;99.90
2489;DHT22;1255;48.716;9.124;2022-07-09T02:21:39;12.30;99.90
2489;DHT22;1255;48.716;9.124;2022-07-09T02:24:06;12.30;99.90
2489;DHT22;1255;48.716;9.124;2022-07-09T02:26:33;12.30;99.90
2489;DHT22;1255;48.716;9.124;2022-07-09T02:29:02;12.30;99.90
2489;DHT22;1255;48.716;9.124;2022-07-09T02:31:30;12.30;99.90
2489;DHT22;1255;48.716;9.124;2022-07-09T02:33:57;12.30;99.90
2489;DHT22;1255;48.716;9.124;2022-07-09T02:36:24;12.30;99.90
2489;DHT22;1255;48.716;9.124;2022-07-09T02:38:50;12.30;99.90
2489;DHT22;1255;48.716;9.124;2022-07-09T02:41:17;12.30;99.90
2489;DHT22;1255;48.716;9.124;2022-07-09T02:43:44;12.20;99.90
2489;DHT22;1255;48.716;9.124;2022-07-09T02:46:12;12.20;99.90
2489;DHT22;1255;48.716;9.124;2022-07-09T02:48:39;12.20;99.90
2489;DHT22;1255;48.716;9.124;2022-07-09T02:51:06;12.20;99.90
2489;DHT22;1255;48.716;9.124;2022-07-09T02:53:33;12.10;99.90
2489;DHT22;1255;48.716;9.124;2022-07-09T02:55:59;12.10;99.90
2489;DHT22;1255;48.716;9.124;2022-07-09T02:58:26;12.10;99.90
2489;DHT22;1255;48.716;9.124;2022-07-09T03:00:53;12.10;99.90
2489;DHT22;1255;48.716;9.124;2022-07-09T03:03:21;12.00;99.90
2489;DHT22;1255;48.716;9.124;2022-07-09T03:05:49;12.00;99.90
2489;DHT22;1255;48.716;9.124;2022-07-09T03:08:16;12.00;99.90
2489;DHT22;1255;48.716;9.124;2022-07-09T03:10:44;12.00;99.90
2489;DHT22;1255;48.716;9.124;2022-07-09T03:13:11;12.00;99.90
2489;DHT22;1255;48.716;9.124;2022-07-09T03:15:38;11.90;99.90
2489;DHT22;1255;48.716;9.124;2022-07-09T03:18:04;11.90;99.90
2489;DHT22;1255;48.716;9.124;2022-07-09T03:20:35;11.90;99.90
2489;DHT22;1255;48.716;9.124;2022-07-09T03:23:02;11.90;99.90
2489;DHT22;1255;48.716;9.124;2022-07-09T03:25:29;11.90;99.90
2489;DHT22;1255;48.716;9.124;2022-07-09T03:27:56;11.90;99.90
2489;DHT22;1255;48.716;9.124;2022-07-09T03:30:23;11.90;99.90
2489;DHT22;1255;48.716;9.124;2022-07-09T03:32:50;11.90;99.90
2489;DHT22;1255;48.716;9.124;2022-07-09T03:35:17;11.90;99.90
2489;DHT22;1255;48.716;9.124;2022-07-09T03:37:46;11.90;99.90
2489;DHT22;1255;48.716;9.124;2022-07-09T03:40:13;11.90;99.90
2489;DHT22;1255;48.716;9.124;2022-07-09T03:42:42;11.90;99.90
2489;DHT22;1255;48.716;9.124;2022-07-09T03:45:10;11.90;99.90
2489;DHT22;1255;48.716;9.124;2022-07-09T03:47:36;11.80;99.90
2489;DHT22;1255;48.716;9.124;2022-07-09T03:50:04;11.90;99.90
2489;DHT22;1255;48.716;9.124;2022-07-09T03:52:31;11.90;99.90
2489;DHT22;1255;48.716;9.124;2022-07-09T03:55:00;11.90;99.90
2489;DHT22;1255;48.716;9.124;2022-07-09T04:00:09;11.90;99.90
2489;DHT22;1255;48.716;9.124;2022-07-09T04:02:36;11.90;99.90
2489;DHT22;1255;48.716;9.124;2022-07-09T04:05:04;11.90;99.90
2489;DHT22;1255;48.716;9.124;2022-07-09T04:07:31;11.90;99.90
2489;DHT22;1255;48.716;9.124;2022-07-09T04:09:57;11.90;99.90
2489;DHT22;1255;48.716;9.124;2022-07-09T04:12:26;11.90;99.90
2489;DHT22;1255;48.716;9.124;2022-07-09T04:14:52;11.90;99.90
2489;DHT22;1255;48.716;9.124;2022-07-09T04:17:19;11.90;99.90
2489;DHT22;1255;48.716;9.124;2022-07-09T04:19:46;11.90;99.90
2489;DHT22;1255;48.716;9.124;2022-07-09T04:22:13;11.90;99.90
2489;DHT22;1255;48.716;9.124;2022-07-09T04:24:40;11.90;99.90
2489;DHT22;1255;48.716;9.124;2022-07-09T04:27:07;11.90;99.90
2489;DHT22;1255;48.716;9.124;2022-07-09T04:29:35;11.90;99.90
2489;DHT22;1255;48.716;9.124;2022-07-09T04:32:02;11.90;99.90
2489;DHT22;1255;48.716;9.124;2022-07-09T04:34:29;11.90;99.90
2489;DHT22;1255;48.716;9.124;2022-07-09T04:36:56;12.00;99.90
2489;DHT22;1255;48.716;9.124;2022-07-09T04:39:22;12.00;99.90
2489;DHT22;1255;48.716;9.124;2022-07-09T04:41:50;12.00;99.90
2489;DHT22;1255;48.716;9.124;2022-07-09T04:44:17;12.10;99.90
2489;DHT22;1255;48.716;9.124;2022-07-09T04:46:45;12.10;99.90
2489;DHT22;1255;48.716;9.124;2022-07-09T04:49:12;12.10;99.90
2489;DHT22;1255;48.716;9.124;2022-07-09T04:51:38;12.20;99.90
2489;DHT22;1255;48.716;9.124;2022-07-09T04:54:05;12.20;99.90
2489;DHT22;1255;48.716;9.124;2022-07-09T04:56:32;12.20;99.90
2489;DHT22;1255;48.716;9.124;2022-07-09T04:58:59;12.20;99.90
2489;DHT22;1255;48.716;9.124;2022-07-09T05:01:28;12.30;99.90
2489;DHT22;1255;48.716;9.124;2022-07-09T05:03:56;12.30;99.90
2489;DHT22;1255;48.716;9.124;2022-07-09T05:06:24;12.40;99.90
2489;DHT22;1255;48.716;9.124;2022-07-09T05:08:51;12.40;99.90
2489;DHT22;1255;48.716;9.124;2022-07-09T05:11:17;12.50;99.90
2489;DHT22;1255;48.716;9.124;2022-07-09T05:13:44;12.60;99.90
2489;DHT22;1255;48.716;9.124;2022-07-09T05:16:12;12.70;99.90
2489;DHT22;1255;48.716;9.124;2022-07-09T05:18:39;12.80;99.90
2489;DHT22;1255;48.716;9.124;2022-07-09T05:21:07;12.80;99.90
2489;DHT22;1255;48.716;9.124;2022-07-09T05:23:34;12.90;99.90
2489;DHT22;1255;48.716;9.124;2022-07-09T05:26:01;13.00;99.90
2489;DHT22;1255;48.716;9.124;2022-07-09T05:28:27;13.00;99.90
2489;DHT22;1255;48.716;9.124;2022-07-09T05:30:54;13.10;99.90
2489;DHT22;1255;48.716;9.124;2022-07-09T05:33:21;13.20;99.90
2489;DHT22;1255;48.716;9.124;2022-07-09T05:35:48;13.30;99.90
2489;DHT22;1255;48.716;9.124;2022-07-09T05:38:16;13.40;99.90
2489;DHT22;1255;48.716;9.124;2022-07-09T05:40:42;13.40;99.90
2489;DHT22;1255;48.716;9.124;2022-07-09T05:43:09;13.50;99.90
2489;DHT22;1255;48.716;9.124;2022-07-09T05:45:36;13.60;99.90
2489;DHT22;1255;48.716;9.124;2022-07-09T05:48:03;13.70;99.90
2489;DHT22;1255;48.716;9.124;2022-07-09T05:50:31;13.80;99.90
2489;DHT22;1255;48.716;9.124;2022-07-09T05:52:58;13.90;99.90
2489;DHT22;1255;48.716;9.124;2022-07-09T05:55:26;14.00;99.90
2489;DHT22;1255;48.716;9.124;2022-07-09T05:57:53;14.10;99.90
2489;DHT22;1255;48.716;9.124;2022-07-09T06:00:20;14.20;99.90
2489;DHT22;1255;48.716;9.124;2022-07-09T06:02:47;14.40;99.90
2489;DHT22;1255;48.716;9.124;2022-07-09T06:05:14;14.50;99.90
2489;DHT22;1255;48.716;9.124;2022-07-09T06:07:41;14.60;99.90
2489;DHT22;1255;48.716;9.124;2022-07-09T06:10:11;14.60;99.90
2489;DHT22;1255;48.716;9.124;2022-07-09T06:12:54;14.70;99.90
2489;DHT22;1255;48.716;9.124;2022-07-09T06:15:20;14.80;99.90
2489;DHT22;1255;48.716;9.124;2022-07-09T06:17:47;14.90;99.90
2489;DHT22;1255;48.716;9.124;2022-07-09T06:20:16;15.00;99.90
2489;DHT22;1255;48.716;9.124;2022-07-09T06:22:42;15.10;99.90
2489;DHT22;1255;48.716;9.124;2022-07-09T06:25:09;15.20;99.90
2489;DHT22;1255;48.716;9.124;2022-07-09T06:27:36;15.30;99.90
2489;DHT22;1255;48.716;9.124;2022-07-09T06:30:06;15.40;99.90
2489;DHT22;1255;48.716;9.124;2022-07-09T06:32:34;15.50;99.90
2489;DHT22;1255;48.716;9.124;2022-07-09T06:35:01;15.60;99.90
2489;DHT22;1255;48.716;9.124;2022-07-09T06:37:29;15.70;99.90
2489;DHT22;1255;48.716;9.124;2022-07-09T06:39:56;15.80;99.90
2489;DHT22;1255;48.716;9.124;2022-07-09T06:42:25;15.90;99.90
2489;DHT22;1255;48.716;9.124;2022-07-09T06:44:52;16.00;99.90
2489;DHT22;1255;48.716;9.124;2022-07-09T06:47:20;16.00;99.90
2489;DHT22;1255;48.716;9.124;2022-07-09T06:49:46;16.10;99.90
2489;DHT22;1255;48.716;9.124;2022-07-09T06:52:13;16.20;99.90
2489;DHT22;1255;48.716;9.124;2022-07-09T06:54:40;16.30;99.90
2489;DHT22;1255;48.716;9.124;2022-07-09T06:57:07;16.40;99.90
2489;DHT22;1255;48.716;9.124;2022-07-09T06:59:35;16.50;99.90
2489;DHT22;1255;48.716;9.124;2022-07-09T07:02:02;16.60;99.90
2489;DHT22;1255;48.716;9.124;2022-07-09T07:04:30;16.70;99.90
2489;DHT22;1255;48.716;9.124;2022-07-09T07:06:57;16.80;99.90
2489;DHT22;1255;48.716;9.124;2022-07-09T07:09:24;16.90;99.90
2489;DHT22;1255;48.716;9.124;2022-07-09T07:11:51;17.00;99.90
2489;DHT22;1255;48.716;9.124;2022-07-09T07:14:17;17.20;99.90
2489;DHT22;1255;48.716;9.124;2022-07-09T07:16:44;17.30;99.90
2489;DHT22;1255;48.716;9.124;2022-07-09T07:19:11;17.40;99.90
2489;DHT22;1255;48.716;9.124;2022-07-09T07:21:39;17.60;99.90
2489;DHT22;1255;48.716;9.124;2022-07-09T07:24:07;17.70;99.90
2489;DHT22;1255;48.716;9.124;2022-07-09T07:26:35;17.80;99.90
2489;DHT22;1255;48.716;9.124;2022-07-09T07:29:02;18.00;99.90
2489;DHT22;1255;48.716;9.124;2022-07-09T07:31:29;18.10;99.90
2489;DHT22;1255;48.716;9.124;2022-07-09T07:33:56;18.20;99.90
2489;DHT22;1255;48.716;9.124;2022-07-09T07:36:23;18.30;99.90
2489;DHT22;1255;48.716;9.124;2022-07-09T07:38:51;18.40;99.90
2489;DHT22;1255;48.716;9.124;2022-07-09T07:41:18;18.40;99.90
2489;DHT22;1255;48.716;9.124;2022-07-09T07:43:46;18.50;99.90
2489;DHT22;1255;48.716;9.124;2022-07-09T07:46:13;18.60;99.90
2489;DHT22;1255;48.716;9.124;2022-07-09T07:48:40;18.70;99.90
2489;DHT22;1255;48.716;9.124;2022-07-09T07:51:07;18.80;99.90
2489;DHT22;1255;48.716;9.124;2022-07-09T07:53:35;19.00;99.90
2489;DHT22;1255;48.716;9.124;2022-07-09T07:56:04;19.00;99.90
2489;DHT22;1255;48.716;9.124;2022-07-09T07:58:31;19.20;99.90
2489;DHT22;1255;48.716;9.124;2022-07-09T08:00:58;19.20;99.90
2489;DHT22;1255;48.716;9.124;2022-07-09T08:03:24;19.20;99.90
2489;DHT22;1255;48.716;9.124;2022-07-09T08:05:51;19.20;99.90
2489;DHT22;1255;48.716;9.124;2022-07-09T08:08:18;19.30;99.90
2489;DHT22;1255;48.716;9.124;2022-07-09T08:10:45;19.40;99.90
2489;DHT22;1255;48.716;9.124;2022-07-09T08:13:15;19.60;99.90
2489;DHT22;1255;48.716;9.124;2022-07-09T08:15:42;19.70;99.90
2489;DHT22;1255;48.716;9.124;2022-07-09T08:18:09;19.70;99.90
2489;DHT22;1255;48.716;9.124;2022-07-09T08:20:37;19.80;99.90
2489;DHT22;1255;48.716;9.124;2022-07-09T08:23:05;19.90;99.90
2489;DHT22;1255;48.716;9.124;2022-07-09T08:25:32;20.00;99.90
2489;DHT22;1255;48.716;9.124;2022-07-09T08:27:58;20.00;99.90
2489;DHT22;1255;48.716;9.124;2022-07-09T08:30:26;20.20;99.90
2489;DHT22;1255;48.716;9.124;2022-07-09T08:32:53;20.30;99.90
2489;DHT22;1255;48.716;9.124;2022-07-09T08:35:20;20.40;99.90
2489;DHT22;1255;48.716;9.124;2022-07-09T08:37:46;20.40;99.90
2489;DHT22;1255;48.716;9.124;2022-07-09T08:40:13;20.40;99.90
2489;DHT22;1255;48.716;9.124;2022-07-09T08:42:41;20.50;99.90
2489;DHT22;1255;48.716;9.124;2022-07-09T08:45:11;20.70;99.90
2489;DHT22;1255;48.716;9.124;2022-07-09T08:47:40;20.80;99.90
2489;DHT22;1255;48.716;9.124;2022-07-09T08:50:08;21.00;99.90
2489;DHT22;1255;48.716;9.124;2022-07-09T08:52:35;21.10;99.90
2489;DHT22;1255;48.716;9.124;2022-07-09T08:55:04;21.30;99.90
2489;DHT22;1255;48.716;9.124;2022-07-09T08:57:32;21.40;99.90
2489;DHT22;1255;48.716;9.124;2022-07-09T09:00:00;21.50;99.90
2489;DHT22;1255;48.716;9.124;2022-07-09T09:02:26;21.60;99.80
2489;DHT22;1255;48.716;9.124;2022-07-09T09:04:56;21.60;99.80
2489;DHT22;1255;48.716;9.124;2022-07-09T09:07:22;21.70;98.80
2489;DHT22;1255;48.716;9.124;2022-07-09T09:09:49;21.70;99.20
2489;DHT22;1255;48.716;9.124;2022-07-09T09:12:26;21.80;99.90
2489;DHT22;1255;48.716;9.124;2022-07-09T09:14:53;22.00;99.90
2489;DHT22;1255;48.716;9.124;2022-07-09T09:17:20;22.10;99.90
2489;DHT22;1255;48.716;9.124;2022-07-09T09:19:46;22.20;99.90
2489;DHT22;1255;48.716;9.124;2022-07-09T09:22:17;22.20;98.60
2489;DHT22;1255;48.716;9.124;2022-07-09T09:24:48;22.20;99.10
2489;DHT22;1255;48.716;9.124;2022-07-09T09:27:15;22.30;99.90
2489;DHT22;1255;48.716;9.124;2022-07-09T09:29:50;22.30;99.90
2489;DHT22;1255;48.716;9.124;2022-07-09T09:32:19;22.50;99.90
2489;DHT22;1255;48.716;9.124;2022-07-09T09:34:49;22.70;99.90
2489;DHT22;1255;48.716;9.124;2022-07-09T09:37:26;23.00;99.90
2489;DHT22;1255;48.716;9.124;2022-07-09T09:39:53;23.10;98.90
2489;DHT22;1255;48.716;9.124;2022-07-09T09:42:22;23.30;99.90
2489;DHT22;1255;48.716;9.124;2022-07-09T09:44:50;23.30;98.80
2489;DHT22;1255;48.716;9.124;2022-07-09T09:47:20;23.40;99.90
2489;DHT22;1255;48.716;9.124;2022-07-09T09:49:48;23.50;98.80
2489;DHT22;1255;48.716;9.124;2022-07-09T09:52:19;23.60;99.40
2489;DHT22;1255;48.716;9.124;2022-07-09T09:54:48;23.60;98.80
2489;DHT22;1255;48.716;9.124;2022-07-09T09:57:17;23.60;97.40
2489;DHT22;1255;48.716;9.124;2022-07-09T09:59:44;23.50;98.20
2489;DHT22;1255;48.716;9.124;2022-07-09T10:02:12;23.30;98.50
2489;DHT22;1255;48.716;9.124;2022-07-09T10:04:40;23.20;97.70
2489;DHT22;1255;48.716;9.124;2022-07-09T10:07:08;23.20;98.40
2489;DHT22;1255;48.716;9.124;2022-07-09T10:09:35;23.40;98.20
2489;DHT22;1255;48.716;9.124;2022-07-09T10:12:04;23.50;98.60
2489;DHT22;1255;48.716;9.124;2022-07-09T10:14:32;23.60;98.10
2489;DHT22;1255;48.716;9.124;2022-07-09T10:17:10;23.60;95.70
2489;DHT22;1255;48.716;9.124;2022-07-09T10:19:38;23.50;97.30
2489;DHT22;1255;48.716;9.124;2022-07-09T10:22:05;23.40;96.30
2489;DHT22;1255;48.716;9.124;2022-07-09T10:24:36;23.60;98.30
2489;DHT22;1255;48.716;9.124;2022-07-09T10:27:07;23.70;97.80
2489;DHT22;1255;48.716;9.124;2022-07-09T10:29:35;24.00;99.70
2489;DHT22;1255;48.716;9.124;2022-07-09T10:32:03;24.30;99.00
2489;DHT22;1255;48.716;9.124;2022-07-09T10:34:53;24.50;97.50
2489;DHT22;1255;48.716;9.124;2022-07-09T10:37:31;24.70;97.10
2489;DHT22;1255;48.716;9.124;2022-07-09T10:40:08;24.90;96.70
2489;DHT22;1255;48.716;9.124;2022-07-09T10:42:37;24.80;97.20
2489;DHT22;1255;48.716;9.124;2022-07-09T10:45:16;24.70;96.40
2489;DHT22;1255;48.716;9.124;2022-07-09T10:47:50;24.40;95.80
2489;DHT22;1255;48.716;9.124;2022-07-09T10:50:18;24.10;95.50
2489;DHT22;1255;48.716;9.124;2022-07-09T10:52:45;24.00;96.30
2489;DHT22;1255;48.716;9.124;2022-07-09T10:55:15;24.00;96.00
2489;DHT22;1255;48.716;9.124;2022-07-09T10:57:43;24.20;97.60
2489;DHT22;1255;48.716;9.124;2022-07-09T11:00:14;24.40;97.60
2489;DHT22;1255;48.716;9.124;2022-07-09T11:02:51;24.60;97.20
2489;DHT22;1255;48.716;9.124;2022-07-09T11:05:18;24.80;96.40
2489;DHT22;1255;48.716;9.124;2022-07-09T11:07:54;25.00;96.30
2489;DHT22;1255;48.716;9.124;2022-07-09T11:10:21;25.30;97.00
2489;DHT22;1255;48.716;9.124;2022-07-09T11:12:49;25.60;97.70
2489;DHT22;1255;48.716;9.124;2022-07-09T11:15:17;25.80;96.30
2489;DHT22;1255;48.716;9.124;2022-07-09T11:17:43;26.00;96.30
2489;DHT22;1255;48.716;9.124;2022-07-09T11:20:10;26.00;94.80
2489;DHT22;1255;48.716;9.124;2022-07-09T11:22:37;25.70;94.70
2489;DHT22;1255;48.716;9.124;2022-07-09T11:25:04;25.40;94.90
2489;DHT22;1255;48.716;9.124;2022-07-09T11:27:31;25.10;95.00
2489;DHT22;1255;48.716;9.124;2022-07-09T11:30:03;24.80;96.00
2489;DHT22;1255;48.716;9.124;2022-07-09T11:32:30;24.40;95.50
2489;DHT22;1255;48.716;9.124;2022-07-09T11:34:57;24.10;96.40
2489;DHT22;1255;48.716;9.124;2022-07-09T11:37:24;23.90;96.60
2489;DHT22;1255;48.716;9.124;2022-07-09T11:39:52;23.70;96.70
2489;DHT22;1255;48.716;9.124;2022-07-09T11:42:19;23.60;96.50
2489;DHT22;1255;48.716;9.124;2022-07-09T11:44:54;23.40;96.60
2489;DHT22;1255;48.716;9.124;2022-07-09T11:47:31;23.40;97.10
2489;DHT22;1255;48.716;9.124;2022-07-09T11:50:05;23.40;96.80
2489;DHT22;1255;48.716;9.124;2022-07-09T11:52:32;23.40;97.50
2489;DHT22;1255;48.716;9.124;2022-07-09T11:55:00;23.40;97.60
2489;DHT22;1255;48.716;9.124;2022-07-09T11:57:28;23.50;97.10
2489;DHT22;1255;48.716;9.124;2022-07-09T11:59:55;23.50;97.90
2489;DHT22;1255;48.716;9.124;2022-07-09T12:02:24;23.70;97.80
2489;DHT22;1255;48.716;9.124;2022-07-09T12:04:51;23.70;98.10
2489;DHT22;1255;48.716;9.124;2022-07-09T12:07:18;23.80;97.80
2489;DHT22;1255;48.716;9.124;2022-07-09T12:09:44;23.90;98.10
2489;DHT22;1255;48.716;9.124;2022-07-09T12:12:11;23.90;98.10
2489;DHT22;1255;48.716;9.124;2022-07-09T12:14:38;23.90;97.60
2489;DHT22;1255;48.716;9.124;2022-07-09T12:17:05;24.00;98.50
2489;DHT22;1255;48.716;9.124;2022-07-09T12:19:33;24.00;98.10
2489;DHT22;1255;48.716;9.124;2022-07-09T12:21:59;23.90;97.60
2489;DHT22;1255;48.716;9.124;2022-07-09T12:24:26;23.90;96.70
2489;DHT22;1255;48.716;9.124;2022-07-09T12:26:53;24.00;97.30
2489;DHT22;1255;48.716;9.124;2022-07-09T12:29:19;23.90;98.10
2489;DHT22;1255;48.716;9.124;2022-07-09T12:31:46;24.00;97.90
2489;DHT22;1255;48.716;9.124;2022-07-09T12:34:13;24.10;98.20
2489;DHT22;1255;48.716;9.124;2022-07-09T12:36:41;24.30;97.00
2489;DHT22;1255;48.716;9.124;2022-07-09T12:39:07;24.30;98.00
2489;DHT22;1255;48.716;9.124;2022-07-09T12:41:34;24.40;98.20
2489;DHT22;1255;48.716;9.124;2022-07-09T12:44:01;24.40;97.10
2489;DHT22;1255;48.716;9.124;2022-07-09T12:46:27;24.20;97.20
2489;DHT22;1255;48.716;9.124;2022-07-09T12:48:54;24.10;96.30
2489;DHT22;1255;48.716;9.124;2022-07-09T12:51:21;23.90;96.70
2489;DHT22;1255;48.716;9.124;2022-07-09T12:53:49;23.80;96.60
2489;DHT22;1255;48.716;9.124;2022-07-09T12:56:15;23.80;97.50
2489;DHT22;1255;48.716;9.124;2022-07-09T12:58:42;23.90;98.10
2489;DHT22;1255;48.716;9.124;2022-07-09T13:01:09;24.10;98.70
2489;DHT22;1255;48.716;9.124;2022-07-09T13:03:36;24.20;98.40
2489;DHT22;1255;48.716;9.124;2022-07-09T13:06:03;24.20;97.50
2489;DHT22;1255;48.716;9.124;2022-07-09T13:08:51;24.20;97.30
2489;DHT22;1255;48.716;9.124;2022-07-09T13:11:18;24.20;96.60
2489;DHT22;1255;48.716;9.124;2022-07-09T13:13:44;24.10;94.70
2489;DHT22;1255;48.716;9.124;2022-07-09T13:16:11;24.10;96.60
2489;DHT22;1255;48.716;9.124;2022-07-09T13:18:38;24.00;97.90
2489;DHT22;1255;48.716;9.124;2022-07-09T13:21:05;24.10;99.70
2489;DHT22;1255;48.716;9.124;2022-07-09T13:23:32;24.30;97.40
2489;DHT22;1255;48.716;9.124;2022-07-09T13:26:00;24.60;97.10
2489;DHT22;1255;48.716;9.124;2022-07-09T13:28:27;24.70;97.70
2489;DHT22;1255;48.716;9.124;2022-07-09T13:30:53;24.80;97.00
2489;DHT22;1255;48.716;9.124;2022-07-09T13:33:20;24.70;96.90
2489;DHT22;1255;48.716;9.124;2022-07-09T13:35:47;24.60;96.70
2489;DHT22;1255;48.716;9.124;2022-07-09T13:38:13;24.30;96.60
2489;DHT22;1255;48.716;9.124;2022-07-09T13:40:40;24.20;97.00
2489;DHT22;1255;48.716;9.124;2022-07-09T13:43:08;24.00;96.30
2489;DHT22;1255;48.716;9.124;2022-07-09T13:45:35;23.90;97.50
2489;DHT22;1255;48.716;9.124;2022-07-09T13:48:02;23.90;98.10
2489;DHT22;1255;48.716;9.124;2022-07-09T13:50:29;23.90;97.10
2489;DHT22;1255;48.716;9.124;2022-07-09T13:52:56;24.00;97.60
2489;DHT22;1255;48.716;9.124;2022-07-09T13:58:22;24.20;97.50
2489;DHT22;1255;48.716;9.124;2022-07-09T14:00:49;24.20;96.20
2489;DHT22;1255;48.716;9.124;2022-07-09T14:03:16;24.20;96.90
2489;DHT22;1255;48.716;9.124;2022-07-09T14:05:46;24.20;96.90
2489;DHT22;1255;48.716;9.124;2022-07-09T14:08:13;24.00;96.90
2489;DHT22;1255;48.716;9.124;2022-07-09T14:10:45;24.00;96.60
2489;DHT22;1255;48.716;9.124;2022-07-09T14:16:17;24.20;96.90
2489;DHT22;1255;48.716;9.124;2022-07-09T14:18:44;24.20;97.60
2489;DHT22;1255;48.716;9.124;2022-07-09T14:21:10;24.20;96.60
2489;DHT22;1255;48.716;9.124;2022-07-09T14:23:37;24.20;96.30
2489;DHT22;1255;48.716;9.124;2022-07-09T14:26:04;24.10;96.30
2489;DHT22;1255;48.716;9.124;2022-07-09T14:28:31;24.20;97.40
2489;DHT22;1255;48.716;9.124;2022-07-09T14:30:58;24.50;97.30
2489;DHT22;1255;48.716;9.124;2022-07-09T14:33:26;24.70;97.00
2489;DHT22;1255;48.716;9.124;2022-07-09T14:35:53;24.80;97.40
2489;DHT22;1255;48.716;9.124;2022-07-09T14:38:20;24.90;97.60
2489;DHT22;1255;48.716;9.124;2022-07-09T14:40:46;24.80;97.90
2489;DHT22;1255;48.716;9.124;2022-07-09T14:43:13;24.90;97.10
2489;DHT22;1255;48.716;9.124;2022-07-09T14:45:40;25.00;96.30
2489;DHT22;1255;48.716;9.124;2022-07-09T14:48:06;25.20;97.40
2489;DHT22;1255;48.716;9.124;2022-07-09T14:50:36;25.30;95.60
2489;DHT22;1255;48.716;9.124;2022-07-09T14:53:03;25.30;96.00
2489;DHT22;1255;48.716;9.124;2022-07-09T14:55:31;25.20;95.50
2489;DHT22;1255;48.716;9.124;2022-07-09T14:58:00;25.00;96.00
2489;DHT22;1255;48.716;9.124;2022-07-09T15:00:27;25.00;96.50
2489;DHT22;1255;48.716;9.124;2022-07-09T15:02:54;25.00;95.50
2489;DHT22;1255;48.716;9.124;2022-07-09T15:05:20;25.00;95.40
2489;DHT22;1255;48.716;9.124;2022-07-09T15:07:50;25.10;97.30
2489;DHT22;1255;48.716;9.124;2022-07-09T15:10:17;25.20;96.60
2489;DHT22;1255;48.716;9.124;2022-07-09T15:12:44;25.10;95.40
2489;DHT22;1255;48.716;9.124;2022-07-09T15:15:10;24.90;95.40
2489;DHT22;1255;48.716;9.124;2022-07-09T15:17:37;24.60;95.10
2489;DHT22;1255;48.716;9.124;2022-07-09T15:20:05;24.50;95.50
2489;DHT22;1255;48.716;9.124;2022-07-09T15:22:31;24.40;95.40
2489;DHT22;1255;48.716;9.124;2022-07-09T15:25:00;24.30;95.50
2489;DHT22;1255;48.716;9.124;2022-07-09T15:27:29;24.30;95.20
2489;DHT22;1255;48.716;9.124;2022-07-09T15:29:56;24.20;95.50
2489;DHT22;1255;48.716;9.124;2022-07-09T15:32:23;24.20;95.40
2489;DHT22;1255;48.716;9.124;2022-07-09T15:34:50;24.20;95.60
2489;DHT22;1255;48.716;9.124;2022-07-09T15:37:17;24.30;95.80
2489;DHT22;1255;48.716;9.124;2022-07-09T15:39:43;24.20;95.80
2489;DHT22;1255;48.716;9.124;2022-07-09T15:42:11;24.20;96.70
2489;DHT22;1255;48.716;9.124;2022-07-09T15:44:40;24.20;96.80
2489;DHT22;1255;48.716;9.124;2022-07-09T15:47:09;24.30;96.70
2489;DHT22;1255;48.716;9.124;2022-07-09T15:49:36;24.50;96.70
2489;DHT22;1255;48.716;9.124;2022-07-09T15:52:03;24.70;96.80
2489;DHT22;1255;48.716;9.124;2022-07-09T15:54:31;24.70;96.60
2489;DHT22;1255;48.716;9.124;2022-07-09T15:56:57;24.70;96.60
2489;DHT22;1255;48.716;9.124;2022-07-09T15:59:26;24.50;95.50
2489;DHT22;1255;48.716;9.124;2022-07-09T16:01:53;24.40;96.30
2489;DHT22;1255;48.716;9.124;2022-07-09T16:04:19;24.30;96.40
2489;DHT22;1255;48.716;9.124;2022-07-09T16:06:47;24.30;96.50
2489;DHT22;1255;48.716;9.124;2022-07-09T16:09:14;24.30;96.30
2489;DHT22;1255;48.716;9.124;2022-07-09T16:11:41;24.20;96.30
2489;DHT22;1255;48.716;9.124;2022-07-09T16:14:26;24.10;95.90